sensor_id;sensor_type;location;lat;lon;timestamp;P1;durP1;ratioP1;P2;durP2;ratioP2
18738;SDS011;9498;51.862;19.460;2022-12-18T00:02:16;92.33;;;25.70;;
18738;SDS011;9498;51.862;19.460;2022-12-18T00:04:43;87.87;;;22.53;;
18738;SDS011;9498;51.862;19.460;2022-12-18T00:07:11;87.33;;;24.40;;
18738;SDS011;9498;51.862;19.460;2022-12-18T00:09:38;87.30;;;25.13;;
18738;SDS011;9498;51.862;19.460;2022-12-18T00:12:05;78.73;;;23.43;;
18738;SDS011;9498;51.862;19.460;2022-12-18T00:14:34;82.23;;;23.13;;
18738;SDS011;9498;51.862;19.460;2022-12-18T00:17:01;79.17;;;22.33;;
18738;SDS011;9498;51.862;19.460;2022-12-18T00:19:29;78.03;;;22.87;;
18738;SDS011;9498;51.862;19.460;2022-12-18T00:21:56;77.83;;;22.90;;
18738;SDS011;9498;51.862;19.460;2022-12-18T00:24:23;85.13;;;22.47;;
18738;SDS011;9498;51.862;19.460;2022-12-18T00:26:50;100.15;;;29.67;;
18738;SDS011;9498;51.862;19.460;2022-12-18T00:29:17;81.93;;;23.80;;
18738;SDS011;9498;51.862;19.460;2022-12-18T00:31:46;79.40;;;23.20;;
18738;SDS011;9498;51.862;19.460;2022-12-18T00:34:13;83.20;;;22.77;;
18738;SDS011;9498;51.862;19.460;2022-12-18T00:36:40;72.03;;;23.07;;
18738;SDS011;9498;51.862;19.460;2022-12-18T00:39:08;88.47;;;22.87;;
18738;SDS011;9498;51.862;19.460;2022-12-18T00:41:36;83.53;;;23.67;;
18738;SDS011;9498;51.862;19.460;2022-12-18T00:44:21;78.53;;;24.40;;
18738;SDS011;9498;51.862;19.460;2022-12-18T00:46:50;82.33;;;22.27;;
18738;SDS011;9498;51.862;19.460;2022-12-18T00:49:17;88.80;;;24.37;;
18738;SDS011;9498;51.862;19.460;2022-12-18T00:51:45;84.88;;;23.88;;
18738;SDS011;9498;51.862;19.460;2022-12-18T00:54:13;78.10;;;23.67;;
18738;SDS011;9498;51.862;19.460;2022-12-18T00:56:40;67.20;;;22.20;;
18738;SDS011;9498;51.862;19.460;2022-12-18T00:59:07;72.67;;;20.07;;
18738;SDS011;9498;51.862;19.460;2022-12-18T01:01:34;76.77;;;22.63;;
18738;SDS011;9498;51.862;19.460;2022-12-18T01:04:03;77.67;;;22.07;;
18738;SDS011;9498;51.862;19.460;2022-12-18T01:06:30;82.37;;;22.37;;
18738;SDS011;9498;51.862;19.460;2022-12-18T01:08:57;75.53;;;21.70;;
18738;SDS011;9498;51.862;19.460;2022-12-18T01:11:25;74.00;;;21.47;;
18738;SDS011;9498;51.862;19.460;2022-12-18T01:13:52;71.20;;;23.67;;
18738;SDS011;9498;51.862;19.460;2022-12-18T01:16:19;68.20;;;21.30;;
18738;SDS011;9498;51.862;19.460;2022-12-18T01:18:47;84.63;;;25.88;;
18738;SDS011;9498;51.862;19.460;2022-12-18T01:21:15;77.30;;;22.50;;
18738;SDS011;9498;51.862;19.460;2022-12-18T01:23:43;78.47;;;21.87;;
18738;SDS011;9498;51.862;19.460;2022-12-18T01:26:11;73.60;;;20.83;;
18738;SDS011;9498;51.862;19.460;2022-12-18T01:28:38;79.20;;;22.67;;
18738;SDS011;9498;51.862;19.460;2022-12-18T01:31:10;75.97;;;21.53;;
18738;SDS011;9498;51.862;19.460;2022-12-18T01:33:37;68.37;;;19.33;;
18738;SDS011;9498;51.862;19.460;2022-12-18T01:36:04;67.00;;;21.43;;
18738;SDS011;9498;51.862;19.460;2022-12-18T01:38:33;75.43;;;20.63;;
18738;SDS011;9498;51.862;19.460;2022-12-18T01:41:01;75.73;;;21.80;;
18738;SDS011;9498;51.862;19.460;2022-12-18T01:43:41;65.30;;;19.88;;
18738;SDS011;9498;51.862;19.460;2022-12-18T01:46:08;61.27;;;19.77;;
18738;SDS011;9498;51.862;19.460;2022-12-18T01:48:36;70.77;;;21.03;;
18738;SDS011;9498;51.862;19.460;2022-12-18T01:51:03;74.83;;;21.10;;
18738;SDS011;9498;51.862;19.460;2022-12-18T01:53:31;70.77;;;20.73;;
18738;SDS011;9498;51.862;19.460;2022-12-18T01:56:00;76.10;;;21.83;;
18738;SDS011;9498;51.862;19.460;2022-12-18T01:58:29;67.93;;;20.43;;
18738;SDS011;9498;51.862;19.460;2022-12-18T02:00:57;69.47;;;20.03;;
18738;SDS011;9498;51.862;19.460;2022-12-18T02:03:24;63.33;;;19.77;;
18738;SDS011;9498;51.862;19.460;2022-12-18T02:05:54;66.07;;;19.80;;
18738;SDS011;9498;51.862;19.460;2022-12-18T02:08:26;69.70;;;20.50;;
18738;SDS011;9498;51.862;19.460;2022-12-18T02:10:56;87.93;;;25.92;;
18738;SDS011;9498;51.862;19.460;2022-12-18T02:13:28;68.67;;;21.53;;
18738;SDS011;9498;51.862;19.460;2022-12-18T02:15:58;68.30;;;20.50;;
18738;SDS011;9498;51.862;19.460;2022-12-18T02:18:29;76.07;;;21.70;;
18738;SDS011;9498;51.862;19.460;2022-12-18T02:20:59;71.67;;;19.83;;
18738;SDS011;9498;51.862;19.460;2022-12-18T02:23:36;68.77;;;19.27;;
18738;SDS011;9498;51.862;19.460;2022-12-18T02:26:12;75.00;;;21.20;;
18738;SDS011;9498;51.862;19.460;2022-12-18T02:28:42;58.13;;;19.07;;
18738;SDS011;9498;51.862;19.460;2022-12-18T02:31:13;71.20;;;20.30;;
18738;SDS011;9498;51.862;19.460;2022-12-18T02:33:42;69.60;;;19.67;;
18738;SDS011;9498;51.862;19.460;2022-12-18T02:36:10;83.80;;;24.40;;
18738;SDS011;9498;51.862;19.460;2022-12-18T02:38:38;76.83;;;21.03;;
18738;SDS011;9498;51.862;19.460;2022-12-18T02:41:05;70.30;;;21.50;;
18738;SDS011;9498;51.862;19.460;2022-12-18T02:43:34;73.60;;;20.67;;
18738;SDS011;9498;51.862;19.460;2022-12-18T02:48:43;75.00;;;21.17;;
18738;SDS011;9498;51.862;19.460;2022-12-18T02:51:13;71.23;;;20.87;;
18738;SDS011;9498;51.862;19.460;2022-12-18T02:53:45;68.13;;;20.27;;
18738;SDS011;9498;51.862;19.460;2022-12-18T02:56:13;65.00;;;19.37;;
18738;SDS011;9498;51.862;19.460;2022-12-18T02:58:45;72.07;;;21.73;;
18738;SDS011;9498;51.862;19.460;2022-12-18T03:01:15;66.60;;;20.13;;
18738;SDS011;9498;51.862;19.460;2022-12-18T03:03:44;86.97;;;27.33;;
18738;SDS011;9498;51.862;19.460;2022-12-18T03:06:14;75.73;;;21.83;;
18738;SDS011;9498;51.862;19.460;2022-12-18T03:08:45;69.60;;;20.40;;
18738;SDS011;9498;51.862;19.460;2022-12-18T03:11:14;66.80;;;19.90;;
18738;SDS011;9498;51.862;19.460;2022-12-18T03:14:02;66.13;;;19.17;;
18738;SDS011;9498;51.862;19.460;2022-12-18T03:16:30;61.30;;;17.53;;
18738;SDS011;9498;51.862;19.460;2022-12-18T03:18:58;62.57;;;19.03;;
18738;SDS011;9498;51.862;19.460;2022-12-18T03:21:28;70.23;;;18.17;;
18738;SDS011;9498;51.862;19.460;2022-12-18T03:23:56;64.63;;;19.90;;
18738;SDS011;9498;51.862;19.460;2022-12-18T03:26:24;69.03;;;20.40;;
18738;SDS011;9498;51.862;19.460;2022-12-18T03:28:53;80.15;;;23.35;;
18738;SDS011;9498;51.862;19.460;2022-12-18T03:31:24;74.13;;;21.17;;
18738;SDS011;9498;51.862;19.460;2022-12-18T03:33:54;61.33;;;19.07;;
18738;SDS011;9498;51.862;19.460;2022-12-18T03:36:21;62.77;;;18.70;;
18738;SDS011;9498;51.862;19.460;2022-12-18T03:38:49;69.50;;;20.13;;
18738;SDS011;9498;51.862;19.460;2022-12-18T03:41:17;65.10;;;19.53;;
18738;SDS011;9498;51.862;19.460;2022-12-18T03:43:48;67.97;;;19.17;;
18738;SDS011;9498;51.862;19.460;2022-12-18T03:46:17;66.43;;;18.70;;
18738;SDS011;9498;51.862;19.460;2022-12-18T03:48:50;57.70;;;18.37;;
18738;SDS011;9498;51.862;19.460;2022-12-18T03:51:21;68.87;;;20.67;;
18738;SDS011;9498;51.862;19.460;2022-12-18T03:53:51;72.95;;;22.27;;
18738;SDS011;9498;51.862;19.460;2022-12-18T03:56:20;63.07;;;19.73;;
18738;SDS011;9498;51.862;19.460;2022-12-18T03:58:49;67.97;;;19.83;;
18738;SDS011;9498;51.862;19.460;2022-12-18T04:01:17;66.40;;;19.37;;
18738;SDS011;9498;51.862;19.460;2022-12-18T04:03:46;62.93;;;19.43;;
18738;SDS011;9498;51.862;19.460;2022-12-18T04:06:16;64.50;;;20.70;;
18738;SDS011;9498;51.862;19.460;2022-12-18T04:08:44;68.30;;;20.10;;
18738;SDS011;9498;51.862;19.460;2022-12-18T04:11:12;69.17;;;20.27;;
18738;SDS011;9498;51.862;19.460;2022-12-18T04:13:39;61.80;;;19.03;;
18738;SDS011;9498;51.862;19.460;2022-12-18T04:16:09;71.13;;;20.70;;
18738;SDS011;9498;51.862;19.460;2022-12-18T04:18:36;69.30;;;20.57;;
18738;SDS011;9498;51.862;19.460;2022-12-18T04:21:04;86.57;;;27.60;;
18738;SDS011;9498;51.862;19.460;2022-12-18T04:23:32;75.33;;;23.10;;
18738;SDS011;9498;51.862;19.460;2022-12-18T04:26:00;79.87;;;23.30;;
18738;SDS011;9498;51.862;19.460;2022-12-18T04:28:27;75.20;;;23.53;;
18738;SDS011;9498;51.862;19.460;2022-12-18T04:30:54;77.07;;;21.83;;
18738;SDS011;9498;51.862;19.460;2022-12-18T04:33:21;69.27;;;22.27;;
18738;SDS011;9498;51.862;19.460;2022-12-18T04:35:48;73.40;;;21.63;;
18738;SDS011;9498;51.862;19.460;2022-12-18T04:38:15;74.57;;;22.83;;
18738;SDS011;9498;51.862;19.460;2022-12-18T04:40:44;64.37;;;20.13;;
18738;SDS011;9498;51.862;19.460;2022-12-18T04:43:11;75.70;;;21.83;;
18738;SDS011;9498;51.862;19.460;2022-12-18T04:45:38;76.57;;;22.33;;
18738;SDS011;9498;51.862;19.460;2022-12-18T04:48:06;74.07;;;21.67;;
18738;SDS011;9498;51.862;19.460;2022-12-18T04:50:33;73.70;;;20.90;;
18738;SDS011;9498;51.862;19.460;2022-12-18T04:53:00;64.90;;;20.87;;
18738;SDS011;9498;51.862;19.460;2022-12-18T04:55:27;79.03;;;22.63;;
18738;SDS011;9498;51.862;19.460;2022-12-18T04:57:56;81.30;;;23.20;;
18738;SDS011;9498;51.862;19.460;2022-12-18T05:00:23;70.23;;;21.77;;
18738;SDS011;9498;51.862;19.460;2022-12-18T05:02:51;75.90;;;22.37;;
18738;SDS011;9498;51.862;19.460;2022-12-18T05:05:18;80.57;;;23.03;;
18738;SDS011;9498;51.862;19.460;2022-12-18T05:07:45;67.60;;;21.33;;
18738;SDS011;9498;51.862;19.460;2022-12-18T05:10:12;72.07;;;20.63;;
18738;SDS011;9498;51.862;19.460;2022-12-18T05:12:39;88.63;;;26.30;;
18738;SDS011;9498;51.862;19.460;2022-12-18T05:15:22;73.20;;;22.47;;
18738;SDS011;9498;51.862;19.460;2022-12-18T05:17:49;67.17;;;21.07;;
18738;SDS011;9498;51.862;19.460;2022-12-18T05:20:16;63.77;;;21.17;;
18738;SDS011;9498;51.862;19.460;2022-12-18T05:22:44;81.77;;;23.33;;
18738;SDS011;9498;51.862;19.460;2022-12-18T05:25:12;68.17;;;21.37;;
18738;SDS011;9498;51.862;19.460;2022-12-18T05:27:39;75.17;;;21.07;;
18738;SDS011;9498;51.862;19.460;2022-12-18T05:30:07;71.27;;;20.80;;
18738;SDS011;9498;51.862;19.460;2022-12-18T05:32:35;76.73;;;22.43;;
18738;SDS011;9498;51.862;19.460;2022-12-18T05:35:03;77.00;;;22.63;;
18738;SDS011;9498;51.862;19.460;2022-12-18T05:37:31;71.30;;;22.83;;
18738;SDS011;9498;51.862;19.460;2022-12-18T05:39:58;97.13;;;30.30;;
18738;SDS011;9498;51.862;19.460;2022-12-18T05:42:25;88.10;;;26.17;;
18738;SDS011;9498;51.862;19.460;2022-12-18T05:44:52;86.67;;;23.73;;
18738;SDS011;9498;51.862;19.460;2022-12-18T05:47:19;87.10;;;24.03;;
18738;SDS011;9498;51.862;19.460;2022-12-18T05:49:48;77.50;;;22.97;;
18738;SDS011;9498;51.862;19.460;2022-12-18T05:52:15;82.43;;;23.37;;
18738;SDS011;9498;51.862;19.460;2022-12-18T05:54:42;86.87;;;24.53;;
18738;SDS011;9498;51.862;19.460;2022-12-18T05:57:10;82.23;;;25.17;;
18738;SDS011;9498;51.862;19.460;2022-12-18T05:59:37;76.33;;;23.17;;
18738;SDS011;9498;51.862;19.460;2022-12-18T06:02:04;78.40;;;22.50;;
18738;SDS011;9498;51.862;19.460;2022-12-18T06:04:31;98.68;;;30.40;;
18738;SDS011;9498;51.862;19.460;2022-12-18T06:07:00;96.37;;;25.90;;
18738;SDS011;9498;51.862;19.460;2022-12-18T06:09:28;81.87;;;25.87;;
18738;SDS011;9498;51.862;19.460;2022-12-18T06:11:55;88.03;;;25.47;;
18738;SDS011;9498;51.862;19.460;2022-12-18T06:14:23;94.53;;;26.90;;
18738;SDS011;9498;51.862;19.460;2022-12-18T06:16:50;95.73;;;28.17;;
18738;SDS011;9498;51.862;19.460;2022-12-18T06:19:17;91.03;;;27.37;;
18738;SDS011;9498;51.862;19.460;2022-12-18T06:21:44;85.60;;;25.67;;
18738;SDS011;9498;51.862;19.460;2022-12-18T06:24:13;88.50;;;26.83;;
18738;SDS011;9498;51.862;19.460;2022-12-18T06:26:40;92.43;;;28.10;;
18738;SDS011;9498;51.862;19.460;2022-12-18T06:29:08;97.17;;;27.53;;
18738;SDS011;9498;51.862;19.460;2022-12-18T06:31:35;109.30;;;34.38;;
18738;SDS011;9498;51.862;19.460;2022-12-18T06:34:02;101.87;;;28.57;;
18738;SDS011;9498;51.862;19.460;2022-12-18T06:36:29;99.43;;;27.83;;
18738;SDS011;9498;51.862;19.460;2022-12-18T06:38:57;101.63;;;28.30;;
18738;SDS011;9498;51.862;19.460;2022-12-18T06:41:25;100.90;;;31.13;;
18738;SDS011;9498;51.862;19.460;2022-12-18T06:43:53;103.70;;;27.93;;
18738;SDS011;9498;51.862;19.460;2022-12-18T06:46:20;91.97;;;27.77;;
18738;SDS011;9498;51.862;19.460;2022-12-18T06:48:48;104.37;;;28.90;;
18738;SDS011;9498;51.862;19.460;2022-12-18T06:51:16;106.37;;;30.00;;
18738;SDS011;9498;51.862;19.460;2022-12-18T06:53:44;95.43;;;26.87;;
18738;SDS011;9498;51.862;19.460;2022-12-18T06:56:11;111.63;;;31.15;;
18738;SDS011;9498;51.862;19.460;2022-12-18T06:58:40;113.40;;;29.27;;
18738;SDS011;9498;51.862;19.460;2022-12-18T07:01:07;101.03;;;28.93;;
18738;SDS011;9498;51.862;19.460;2022-12-18T07:03:35;103.00;;;29.50;;
18738;SDS011;9498;51.862;19.460;2022-12-18T07:06:03;100.83;;;29.07;;
18738;SDS011;9498;51.862;19.460;2022-12-18T07:08:30;121.53;;;31.70;;
18738;SDS011;9498;51.862;19.460;2022-12-18T07:10:58;109.80;;;30.50;;
18738;SDS011;9498;51.862;19.460;2022-12-18T07:13:25;111.20;;;28.47;;
18738;SDS011;9498;51.862;19.460;2022-12-18T07:15:54;111.47;;;29.97;;
18738;SDS011;9498;51.862;19.460;2022-12-18T07:18:21;110.70;;;30.40;;
18738;SDS011;9498;51.862;19.460;2022-12-18T07:20:48;107.27;;;29.67;;
18738;SDS011;9498;51.862;19.460;2022-12-18T07:23:15;118.40;;;31.23;;
18738;SDS011;9498;51.862;19.460;2022-12-18T07:25:42;125.97;;;30.50;;
18738;SDS011;9498;51.862;19.460;2022-12-18T07:28:10;135.32;;;36.95;;
18738;SDS011;9498;51.862;19.460;2022-12-18T07:30:37;112.07;;;31.40;;
18738;SDS011;9498;51.862;19.460;2022-12-18T07:33:06;103.23;;;28.87;;
18738;SDS011;9498;51.862;19.460;2022-12-18T07:35:33;105.33;;;29.33;;
18738;SDS011;9498;51.862;19.460;2022-12-18T07:38:00;115.30;;;29.87;;
18738;SDS011;9498;51.862;19.460;2022-12-18T07:40:27;98.33;;;28.63;;
18738;SDS011;9498;51.862;19.460;2022-12-18T07:42:55;109.70;;;29.30;;
18738;SDS011;9498;51.862;19.460;2022-12-18T07:45:22;110.77;;;28.50;;
18738;SDS011;9498;51.862;19.460;2022-12-18T07:47:49;108.97;;;26.67;;
18738;SDS011;9498;51.862;19.460;2022-12-18T07:50:18;107.73;;;29.33;;
18738;SDS011;9498;51.862;19.460;2022-12-18T07:52:45;123.25;;;33.33;;
18738;SDS011;9498;51.862;19.460;2022-12-18T07:55:12;114.50;;;29.17;;
18738;SDS011;9498;51.862;19.460;2022-12-18T07:57:40;104.60;;;28.40;;
18738;SDS011;9498;51.862;19.460;2022-12-18T08:00:07;99.30;;;27.57;;
18738;SDS011;9498;51.862;19.460;2022-12-18T08:02:35;95.80;;;26.70;;
18738;SDS011;9498;51.862;19.460;2022-12-18T08:05:02;109.07;;;30.90;;
18738;SDS011;9498;51.862;19.460;2022-12-18T08:07:31;100.10;;;28.27;;
18738;SDS011;9498;51.862;19.460;2022-12-18T08:09:58;100.43;;;26.63;;
18738;SDS011;9498;51.862;19.460;2022-12-18T08:12:25;88.70;;;24.77;;
18738;SDS011;9498;51.862;19.460;2022-12-18T08:14:52;100.77;;;27.30;;
18738;SDS011;9498;51.862;19.460;2022-12-18T08:17:19;86.53;;;26.37;;
18738;SDS011;9498;51.862;19.460;2022-12-18T08:19:47;98.63;;;26.33;;
18738;SDS011;9498;51.862;19.460;2022-12-18T08:22:14;119.93;;;33.43;;
18738;SDS011;9498;51.862;19.460;2022-12-18T08:24:43;117.30;;;29.23;;
18738;SDS011;9498;51.862;19.460;2022-12-18T08:27:10;112.13;;;30.53;;
18738;SDS011;9498;51.862;19.460;2022-12-18T08:29:37;102.80;;;27.97;;
18738;SDS011;9498;51.862;19.460;2022-12-18T08:32:04;103.67;;;26.57;;
18738;SDS011;9498;51.862;19.460;2022-12-18T08:34:31;101.60;;;27.17;;
18738;SDS011;9498;51.862;19.460;2022-12-18T08:36:59;92.60;;;25.17;;
18738;SDS011;9498;51.862;19.460;2022-12-18T08:39:26;98.60;;;27.20;;
18738;SDS011;9498;51.862;19.460;2022-12-18T08:41:55;95.17;;;24.87;;
18738;SDS011;9498;51.862;19.460;2022-12-18T08:44:39;108.83;;;26.93;;
18738;SDS011;9498;51.862;19.460;2022-12-18T08:47:07;105.10;;;30.08;;
18738;SDS011;9498;51.862;19.460;2022-12-18T08:49:34;99.83;;;28.20;;
18738;SDS011;9498;51.862;19.460;2022-12-18T08:52:01;111.20;;;28.87;;
18738;SDS011;9498;51.862;19.460;2022-12-18T08:54:29;98.70;;;27.10;;
18738;SDS011;9498;51.862;19.460;2022-12-18T08:56:59;112.07;;;27.53;;
18738;SDS011;9498;51.862;19.460;2022-12-18T08:59:26;101.37;;;27.70;;
18738;SDS011;9498;51.862;19.460;2022-12-18T09:01:53;107.90;;;28.03;;
18738;SDS011;9498;51.862;19.460;2022-12-18T09:04:21;109.90;;;27.70;;
18738;SDS011;9498;51.862;19.460;2022-12-18T09:06:48;107.63;;;28.33;;
18738;SDS011;9498;51.862;19.460;2022-12-18T09:09:15;98.00;;;27.43;;
18738;SDS011;9498;51.862;19.460;2022-12-18T09:11:43;121.37;;;29.80;;
18738;SDS011;9498;51.862;19.460;2022-12-18T09:14:11;125.53;;;35.75;;
18738;SDS011;9498;51.862;19.460;2022-12-18T09:16:39;125.20;;;31.03;;
18738;SDS011;9498;51.862;19.460;2022-12-18T09:19:06;96.37;;;28.30;;
18738;SDS011;9498;51.862;19.460;2022-12-18T09:21:34;100.73;;;25.87;;
18738;SDS011;9498;51.862;19.460;2022-12-18T09:24:01;93.93;;;25.13;;
18738;SDS011;9498;51.862;19.460;2022-12-18T09:26:28;93.93;;;25.93;;
18738;SDS011;9498;51.862;19.460;2022-12-18T09:28:56;80.73;;;24.63;;
18738;SDS011;9498;51.862;19.460;2022-12-18T09:31:25;82.03;;;24.23;;
18738;SDS011;9498;51.862;19.460;2022-12-18T09:33:52;96.40;;;23.37;;
18738;SDS011;9498;51.862;19.460;2022-12-18T09:36:21;74.27;;;21.87;;
18738;SDS011;9498;51.862;19.460;2022-12-18T09:38:48;85.37;;;22.80;;
18738;SDS011;9498;51.862;19.460;2022-12-18T09:41:18;83.70;;;24.13;;
18738;SDS011;9498;51.862;19.460;2022-12-18T09:43:49;85.57;;;25.03;;
18738;SDS011;9498;51.862;19.460;2022-12-18T09:46:19;100.80;;;25.83;;
18738;SDS011;9498;51.862;19.460;2022-12-18T09:48:52;91.47;;;25.30;;
18738;SDS011;9498;51.862;19.460;2022-12-18T09:51:22;102.07;;;25.60;;
18738;SDS011;9498;51.862;19.460;2022-12-18T09:53:50;101.87;;;27.83;;
18738;SDS011;9498;51.862;19.460;2022-12-18T09:56:19;99.37;;;25.77;;
18738;SDS011;9498;51.862;19.460;2022-12-18T09:58:49;97.00;;;25.00;;
18738;SDS011;9498;51.862;19.460;2022-12-18T10:01:20;96.43;;;25.50;;
18738;SDS011;9498;51.862;19.460;2022-12-18T10:03:49;102.57;;;25.90;;
18738;SDS011;9498;51.862;19.460;2022-12-18T10:06:20;100.93;;;31.55;;
18738;SDS011;9498;51.862;19.460;2022-12-18T10:08:49;105.67;;;28.40;;
18738;SDS011;9498;51.862;19.460;2022-12-18T10:11:22;95.50;;;27.27;;
18738;SDS011;9498;51.862;19.460;2022-12-18T10:13:54;98.67;;;25.60;;
18738;SDS011;9498;51.862;19.460;2022-12-18T10:16:24;90.57;;;26.03;;
18738;SDS011;9498;51.862;19.460;2022-12-18T10:18:57;94.80;;;25.30;;
18738;SDS011;9498;51.862;19.460;2022-12-18T10:21:30;87.57;;;23.47;;
18738;SDS011;9498;51.862;19.460;2022-12-18T10:24:00;95.43;;;24.90;;
18738;SDS011;9498;51.862;19.460;2022-12-18T10:26:30;81.67;;;23.10;;
18738;SDS011;9498;51.862;19.460;2022-12-18T10:28:58;82.80;;;23.77;;
18738;SDS011;9498;51.862;19.460;2022-12-18T10:31:26;92.67;;;23.50;;
18738;SDS011;9498;51.862;19.460;2022-12-18T10:33:53;105.40;;;30.27;;
18738;SDS011;9498;51.862;19.460;2022-12-18T10:36:22;86.13;;;24.40;;
18738;SDS011;9498;51.862;19.460;2022-12-18T10:38:51;85.63;;;25.10;;
18738;SDS011;9498;51.862;19.460;2022-12-18T10:41:27;84.00;;;22.57;;
18738;SDS011;9498;51.862;19.460;2022-12-18T10:44:10;77.73;;;23.70;;
18738;SDS011;9498;51.862;19.460;2022-12-18T10:46:37;79.53;;;21.83;;
18738;SDS011;9498;51.862;19.460;2022-12-18T10:49:05;89.00;;;23.83;;
18738;SDS011;9498;51.862;19.460;2022-12-18T10:51:33;85.60;;;24.03;;
18738;SDS011;9498;51.862;19.460;2022-12-18T10:54:02;87.87;;;24.80;;
18738;SDS011;9498;51.862;19.460;2022-12-18T10:56:31;85.70;;;24.37;;
18738;SDS011;9498;51.862;19.460;2022-12-18T10:58:59;105.55;;;30.38;;
18738;SDS011;9498;51.862;19.460;2022-12-18T11:01:27;100.93;;;26.53;;
18738;SDS011;9498;51.862;19.460;2022-12-18T11:04:02;93.20;;;25.07;;
18738;SDS011;9498;51.862;19.460;2022-12-18T11:06:34;90.87;;;24.53;;
18738;SDS011;9498;51.862;19.460;2022-12-18T11:09:20;93.13;;;24.13;;
18738;SDS011;9498;51.862;19.460;2022-12-18T11:11:48;84.50;;;23.17;;
18738;SDS011;9498;51.862;19.460;2022-12-18T11:14:18;86.27;;;23.90;;
18738;SDS011;9498;51.862;19.460;2022-12-18T11:16:47;91.03;;;23.13;;
18738;SDS011;9498;51.862;19.460;2022-12-18T11:19:19;78.03;;;22.30;;
18738;SDS011;9498;51.862;19.460;2022-12-18T11:21:48;89.57;;;25.10;;
18738;SDS011;9498;51.862;19.460;2022-12-18T11:24:18;89.28;;;25.83;;
18738;SDS011;9498;51.862;19.460;2022-12-18T11:26:47;80.97;;;21.63;;
18738;SDS011;9498;51.862;19.460;2022-12-18T11:29:16;84.63;;;24.43;;
18738;SDS011;9498;51.862;19.460;2022-12-18T11:31:43;73.97;;;21.73;;
18738;SDS011;9498;51.862;19.460;2022-12-18T11:34:11;82.70;;;23.47;;
18738;SDS011;9498;51.862;19.460;2022-12-18T11:36:41;91.27;;;25.40;;
18738;SDS011;9498;51.862;19.460;2022-12-18T11:39:10;88.00;;;24.60;;
18738;SDS011;9498;51.862;19.460;2022-12-18T11:41:41;84.27;;;23.93;;
18738;SDS011;9498;51.862;19.460;2022-12-18T11:44:29;71.73;;;20.50;;
18738;SDS011;9498;51.862;19.460;2022-12-18T11:47:00;83.17;;;22.93;;
18738;SDS011;9498;51.862;19.460;2022-12-18T11:49:29;88.37;;;24.33;;
18738;SDS011;9498;51.862;19.460;2022-12-18T11:52:00;102.90;;;30.70;;
18738;SDS011;9498;51.862;19.460;2022-12-18T11:54:30;102.83;;;27.60;;
18738;SDS011;9498;51.862;19.460;2022-12-18T11:56:58;100.27;;;26.90;;
18738;SDS011;9498;51.862;19.460;2022-12-18T11:59:32;87.20;;;25.40;;
18738;SDS011;9498;51.862;19.460;2022-12-18T12:02:09;92.80;;;25.57;;
18738;SDS011;9498;51.862;19.460;2022-12-18T12:04:52;99.70;;;25.97;;
18738;SDS011;9498;51.862;19.460;2022-12-18T12:07:26;110.57;;;27.50;;
18738;SDS011;9498;51.862;19.460;2022-12-18T12:09:57;98.40;;;26.30;;
18738;SDS011;9498;51.862;19.460;2022-12-18T12:12:29;104.33;;;27.50;;
18738;SDS011;9498;51.862;19.460;2022-12-18T12:15:13;107.40;;;28.83;;
18738;SDS011;9498;51.862;19.460;2022-12-18T12:17:45;123.15;;;34.67;;
18738;SDS011;9498;51.862;19.460;2022-12-18T12:20:18;114.70;;;31.07;;
18738;SDS011;9498;51.862;19.460;2022-12-18T12:22:49;98.73;;;28.77;;
18738;SDS011;9498;51.862;19.460;2022-12-18T12:25:25;101.60;;;28.17;;
18738;SDS011;9498;51.862;19.460;2022-12-18T12:27:56;109.50;;;26.77;;
18738;SDS011;9498;51.862;19.460;2022-12-18T12:30:28;110.67;;;27.13;;
18738;SDS011;9498;51.862;19.460;2022-12-18T12:33:01;102.77;;;29.43;;
18738;SDS011;9498;51.862;19.460;2022-12-18T12:35:34;101.40;;;27.70;;
18738;SDS011;9498;51.862;19.460;2022-12-18T12:38:05;102.63;;;29.00;;
18738;SDS011;9498;51.862;19.460;2022-12-18T12:40:34;107.53;;;27.30;;
18738;SDS011;9498;51.862;19.460;2022-12-18T12:43:02;112.75;;;31.65;;
18738;SDS011;9498;51.862;19.460;2022-12-18T12:45:42;95.90;;;26.97;;
18738;SDS011;9498;51.862;19.460;2022-12-18T12:48:15;98.00;;;27.90;;
18738;SDS011;9498;51.862;19.460;2022-12-18T12:50:43;91.93;;;27.00;;
18738;SDS011;9498;51.862;19.460;2022-12-18T12:53:14;100.10;;;26.67;;
18738;SDS011;9498;51.862;19.460;2022-12-18T12:55:44;108.23;;;27.90;;
18738;SDS011;9498;51.862;19.460;2022-12-18T12:58:12;101.57;;;27.70;;
18738;SDS011;9498;51.862;19.460;2022-12-18T13:00:44;98.57;;;25.83;;
18738;SDS011;9498;51.862;19.460;2022-12-18T13:03:15;86.83;;;24.90;;
18738;SDS011;9498;51.862;19.460;2022-12-18T13:05:48;95.73;;;24.93;;
18738;SDS011;9498;51.862;19.460;2022-12-18T13:08:22;86.27;;;25.37;;
18738;SDS011;9498;51.862;19.460;2022-12-18T13:10:50;99.85;;;28.88;;
18738;SDS011;9498;51.862;19.460;2022-12-18T13:13:47;89.60;;;25.27;;
18738;SDS011;9498;51.862;19.460;2022-12-18T13:16:16;76.50;;;23.13;;
18738;SDS011;9498;51.862;19.460;2022-12-18T13:18:48;93.30;;;25.77;;
18738;SDS011;9498;51.862;19.460;2022-12-18T13:21:17;91.37;;;25.17;;
18738;SDS011;9498;51.862;19.460;2022-12-18T13:23:48;89.57;;;25.83;;
18738;SDS011;9498;51.862;19.460;2022-12-18T13:26:28;80.57;;;22.67;;
18738;SDS011;9498;51.862;19.460;2022-12-18T13:28:57;93.70;;;25.57;;
18738;SDS011;9498;51.862;19.460;2022-12-18T13:34:34;96.97;;;24.67;;
18738;SDS011;9498;51.862;19.460;2022-12-18T13:42:51;94.33;;;24.53;;
18738;SDS011;9498;51.862;19.460;2022-12-18T13:45:46;88.20;;;24.13;;
18738;SDS011;9498;51.862;19.460;2022-12-18T13:48:18;91.23;;;25.33;;
18738;SDS011;9498;51.862;19.460;2022-12-18T13:50:49;84.77;;;24.90;;
18738;SDS011;9498;51.862;19.460;2022-12-18T13:53:20;86.80;;;23.60;;
18738;SDS011;9498;51.862;19.460;2022-12-18T13:55:48;95.40;;;25.23;;
18738;SDS011;9498;51.862;19.460;2022-12-18T13:58:16;84.93;;;24.00;;
18738;SDS011;9498;51.862;19.460;2022-12-18T14:00:43;86.27;;;23.03;;
18738;SDS011;9498;51.862;19.460;2022-12-18T14:03:18;94.07;;;26.30;;
18738;SDS011;9498;51.862;19.460;2022-12-18T14:05:46;92.33;;;24.17;;
18738;SDS011;9498;51.862;19.460;2022-12-18T14:08:20;113.85;;;32.75;;
18738;SDS011;9498;51.862;19.460;2022-12-18T14:10:48;107.23;;;26.80;;
18738;SDS011;9498;51.862;19.460;2022-12-18T14:13:17;101.07;;;26.43;;
18738;SDS011;9498;51.862;19.460;2022-12-18T14:15:46;102.53;;;25.60;;
18738;SDS011;9498;51.862;19.460;2022-12-18T14:18:17;83.97;;;25.07;;
18738;SDS011;9498;51.862;19.460;2022-12-18T14:20:46;91.50;;;26.90;;
18738;SDS011;9498;51.862;19.460;2022-12-18T14:23:28;100.80;;;27.50;;
18738;SDS011;9498;51.862;19.460;2022-12-18T14:25:55;111.87;;;29.40;;
18738;SDS011;9498;51.862;19.460;2022-12-18T14:28:23;95.80;;;28.03;;
18738;SDS011;9498;51.862;19.460;2022-12-18T14:30:51;127.80;;;36.15;;
18738;SDS011;9498;51.862;19.460;2022-12-18T14:33:18;108.70;;;29.43;;
18738;SDS011;9498;51.862;19.460;2022-12-18T14:35:52;105.57;;;29.63;;
18738;SDS011;9498;51.862;19.460;2022-12-18T14:38:21;107.77;;;29.17;;
18738;SDS011;9498;51.862;19.460;2022-12-18T14:40:52;109.40;;;31.27;;
18738;SDS011;9498;51.862;19.460;2022-12-18T14:43:20;103.20;;;27.70;;